sensor_id;sensor_type;location;lat;lon;timestamp;P1;durP1;ratioP1;P2;durP2;ratioP2
61531;SDS011;47397;48.194;11.632;2023-06-04T00:00:58;7.30;;;4.90;;
61531;SDS011;47397;48.194;11.632;2023-06-04T00:02:00;6.18;;;4.97;;
61531;SDS011;47397;48.194;11.632;2023-06-04T00:03:00;6.97;;;4.50;;
61531;SDS011;47397;48.194;11.632;2023-06-04T00:04:01;8.07;;;5.15;;
61531;SDS011;47397;48.194;11.632;2023-06-04T00:05:01;8.10;;;4.93;;
61531;SDS011;47397;48.194;11.632;2023-06-04T00:06:02;8.63;;;4.22;;
61531;SDS011;47397;48.194;11.632;2023-06-04T00:07:02;7.38;;;4.90;;
61531;SDS011;47397;48.194;11.632;2023-06-04T00:08:03;6.00;;;4.35;;
61531;SDS011;47397;48.194;11.632;2023-06-04T00:09:03;6.00;;;4.53;;
61531;SDS011;47397;48.194;11.632;2023-06-04T00:10:04;8.82;;;5.22;;
61531;SDS011;47397;48.194;11.632;2023-06-04T00:11:05;6.57;;;4.60;;
61531;SDS011;47397;48.194;11.632;2023-06-04T00:12:06;7.38;;;4.35;;
61531;SDS011;47397;48.194;11.632;2023-06-04T00:13:06;7.35;;;5.03;;
61531;SDS011;47397;48.194;11.632;2023-06-04T00:14:07;6.22;;;4.70;;
61531;SDS011;47397;48.194;11.632;2023-06-04T00:15:07;6.75;;;4.78;;
61531;SDS011;47397;48.194;11.632;2023-06-04T00:16:08;6.20;;;4.43;;
61531;SDS011;47397;48.194;11.632;2023-06-04T00:17:10;7.45;;;4.90;;
61531;SDS011;47397;48.194;11.632;2023-06-04T00:18:11;5.97;;;4.50;;
61531;SDS011;47397;48.194;11.632;2023-06-04T00:19:11;6.55;;;4.80;;
61531;SDS011;47397;48.194;11.632;2023-06-04T00:20:11;5.32;;;4.18;;
61531;SDS011;47397;48.194;11.632;2023-06-04T00:21:12;6.28;;;4.35;;
61531;SDS011;47397;48.194;11.632;2023-06-04T00:22:12;6.40;;;4.32;;
61531;SDS011;47397;48.194;11.632;2023-06-04T00:23:13;6.78;;;4.30;;
61531;SDS011;47397;48.194;11.632;2023-06-04T00:24:13;7.55;;;4.80;;
61531;SDS011;47397;48.194;11.632;2023-06-04T00:25:13;7.30;;;4.55;;
61531;SDS011;47397;48.194;11.632;2023-06-04T00:26:14;6.68;;;4.30;;
61531;SDS011;47397;48.194;11.632;2023-06-04T00:27:14;5.57;;;4.55;;
61531;SDS011;47397;48.194;11.632;2023-06-04T00:28:15;7.03;;;4.45;;
61531;SDS011;47397;48.194;11.632;2023-06-04T00:29:15;6.72;;;4.32;;
61531;SDS011;47397;48.194;11.632;2023-06-04T00:30:16;5.22;;;4.28;;
61531;SDS011;47397;48.194;11.632;2023-06-04T00:31:16;6.53;;;4.45;;
61531;SDS011;47397;48.194;11.632;2023-06-04T00:32:18;5.45;;;4.30;;
61531;SDS011;47397;48.194;11.632;2023-06-04T00:33:18;7.13;;;4.38;;
61531;SDS011;47397;48.194;11.632;2023-06-04T00:34:19;6.35;;;4.32;;
61531;SDS011;47397;48.194;11.632;2023-06-04T00:35:19;7.50;;;4.22;;
61531;SDS011;47397;48.194;11.632;2023-06-04T00:36:20;6.00;;;4.40;;
61531;SDS011;47397;48.194;11.632;2023-06-04T00:37:21;7.18;;;4.32;;
61531;SDS011;47397;48.194;11.632;2023-06-04T00:38:22;7.18;;;4.47;;
61531;SDS011;47397;48.194;11.632;2023-06-04T00:39:22;5.38;;;4.35;;
61531;SDS011;47397;48.194;11.632;2023-06-04T00:40:23;6.15;;;4.57;;
61531;SDS011;47397;48.194;11.632;2023-06-04T00:41:23;7.70;;;4.38;;
61531;SDS011;47397;48.194;11.632;2023-06-04T00:42:23;6.57;;;4.13;;
61531;SDS011;47397;48.194;11.632;2023-06-04T00:43:24;5.80;;;4.00;;
61531;SDS011;47397;48.194;11.632;2023-06-04T00:44:24;8.65;;;4.43;;
61531;SDS011;47397;48.194;11.632;2023-06-04T00:45:25;6.00;;;4.32;;
61531;SDS011;47397;48.194;11.632;2023-06-04T00:46:25;6.10;;;3.90;;
61531;SDS011;47397;48.194;11.632;2023-06-04T00:47:27;7.22;;;4.35;;
61531;SDS011;47397;48.194;11.632;2023-06-04T00:48:28;7.45;;;4.15;;
61531;SDS011;47397;48.194;11.632;2023-06-04T00:49:28;9.10;;;3.85;;
61531;SDS011;47397;48.194;11.632;2023-06-04T00:50:29;4.90;;;3.85;;
61531;SDS011;47397;48.194;11.632;2023-06-04T00:51:30;5.80;;;4.20;;
61531;SDS011;47397;48.194;11.632;2023-06-04T00:52:31;7.07;;;4.32;;
61531;SDS011;47397;48.194;11.632;2023-06-04T00:53:31;5.60;;;3.75;;
61531;SDS011;47397;48.194;11.632;2023-06-04T00:54:32;6.30;;;3.85;;
61531;SDS011;47397;48.194;11.632;2023-06-04T00:55:32;5.32;;;4.10;;
61531;SDS011;47397;48.194;11.632;2023-06-04T00:56:33;7.10;;;4.20;;
61531;SDS011;47397;48.194;11.632;2023-06-04T00:57:33;6.05;;;4.10;;
61531;SDS011;47397;48.194;11.632;2023-06-04T00:58:37;6.65;;;3.90;;
61531;SDS011;47397;48.194;11.632;2023-06-04T00:59:38;6.15;;;3.97;;
61531;SDS011;47397;48.194;11.632;2023-06-04T01:00:40;6.40;;;4.45;;
61531;SDS011;47397;48.194;11.632;2023-06-04T01:01:42;7.95;;;4.47;;
61531;SDS011;47397;48.194;11.632;2023-06-04T01:02:50;6.25;;;4.00;;
61531;SDS011;47397;48.194;11.632;2023-06-04T01:03:53;5.75;;;4.07;;
61531;SDS011;47397;48.194;11.632;2023-06-04T01:04:58;7.38;;;4.30;;
61531;SDS011;47397;48.194;11.632;2023-06-04T01:06:04;6.32;;;3.83;;
61531;SDS011;47397;48.194;11.632;2023-06-04T01:07:11;4.88;;;3.92;;
61531;SDS011;47397;48.194;11.632;2023-06-04T01:08:14;8.00;;;4.13;;
61531;SDS011;47397;48.194;11.632;2023-06-04T01:09:14;4.97;;;3.60;;
61531;SDS011;47397;48.194;11.632;2023-06-04T01:10:15;6.07;;;4.10;;
61531;SDS011;47397;48.194;11.632;2023-06-04T01:11:16;6.60;;;4.10;;
61531;SDS011;47397;48.194;11.632;2023-06-04T01:12:17;6.90;;;4.25;;
61531;SDS011;47397;48.194;11.632;2023-06-04T01:13:17;4.70;;;3.85;;
61531;SDS011;47397;48.194;11.632;2023-06-04T01:14:17;5.20;;;3.83;;
61531;SDS011;47397;48.194;11.632;2023-06-04T01:15:18;7.55;;;4.43;;
61531;SDS011;47397;48.194;11.632;2023-06-04T01:16:18;6.28;;;4.43;;
61531;SDS011;47397;48.194;11.632;2023-06-04T01:17:20;6.25;;;4.07;;
61531;SDS011;47397;48.194;11.632;2023-06-04T01:18:26;5.50;;;3.95;;
61531;SDS011;47397;48.194;11.632;2023-06-04T01:21:10;5.60;;;4.10;;
61531;SDS011;47397;48.194;11.632;2023-06-04T01:22:16;5.35;;;3.80;;
61531;SDS011;47397;48.194;11.632;2023-06-04T01:23:26;5.38;;;4.13;;
61531;SDS011;47397;48.194;11.632;2023-06-04T01:24:32;6.00;;;4.30;;
61531;SDS011;47397;48.194;11.632;2023-06-04T01:25:37;5.75;;;3.90;;
61531;SDS011;47397;48.194;11.632;2023-06-04T01:26:38;6.03;;;3.95;;
61531;SDS011;47397;48.194;11.632;2023-06-04T01:27:39;5.20;;;3.67;;
61531;SDS011;47397;48.194;11.632;2023-06-04T01:28:39;5.60;;;4.13;;
61531;SDS011;47397;48.194;11.632;2023-06-04T01:29:40;5.47;;;4.22;;
61531;SDS011;47397;48.194;11.632;2023-06-04T01:30:42;6.32;;;4.15;;
61531;SDS011;47397;48.194;11.632;2023-06-04T01:31:44;5.53;;;4.30;;
61531;SDS011;47397;48.194;11.632;2023-06-04T01:32:44;6.10;;;4.20;;
61531;SDS011;47397;48.194;11.632;2023-06-04T01:33:46;5.43;;;4.18;;
61531;SDS011;47397;48.194;11.632;2023-06-04T01:34:47;5.05;;;3.90;;
61531;SDS011;47397;48.194;11.632;2023-06-04T01:35:47;5.50;;;3.70;;
61531;SDS011;47397;48.194;11.632;2023-06-04T01:36:48;5.18;;;3.85;;
61531;SDS011;47397;48.194;11.632;2023-06-04T01:37:48;5.18;;;4.00;;
61531;SDS011;47397;48.194;11.632;2023-06-04T01:38:49;5.65;;;4.15;;
61531;SDS011;47397;48.194;11.632;2023-06-04T01:39:49;7.53;;;4.10;;
61531;SDS011;47397;48.194;11.632;2023-06-04T01:40:50;5.55;;;3.72;;
61531;SDS011;47397;48.194;11.632;2023-06-04T01:41:50;5.70;;;3.72;;
61531;SDS011;47397;48.194;11.632;2023-06-04T01:42:51;4.95;;;3.72;;
61531;SDS011;47397;48.194;11.632;2023-06-04T01:43:51;5.45;;;3.85;;
61531;SDS011;47397;48.194;11.632;2023-06-04T01:44:51;5.72;;;3.83;;
61531;SDS011;47397;48.194;11.632;2023-06-04T01:45:52;7.50;;;4.43;;
61531;SDS011;47397;48.194;11.632;2023-06-04T01:46:53;6.07;;;3.90;;
61531;SDS011;47397;48.194;11.632;2023-06-04T01:47:54;6.05;;;4.07;;
61531;SDS011;47397;48.194;11.632;2023-06-04T01:48:56;4.85;;;3.67;;
61531;SDS011;47397;48.194;11.632;2023-06-04T01:49:56;5.65;;;3.80;;
61531;SDS011;47397;48.194;11.632;2023-06-04T01:50:57;6.43;;;4.13;;
61531;SDS011;47397;48.194;11.632;2023-06-04T01:51:57;4.72;;;3.83;;
61531;SDS011;47397;48.194;11.632;2023-06-04T01:52:58;5.50;;;4.03;;
61531;SDS011;47397;48.194;11.632;2023-06-04T01:53:58;6.45;;;4.10;;
61531;SDS011;47397;48.194;11.632;2023-06-04T01:54:59;5.18;;;3.72;;
61531;SDS011;47397;48.194;11.632;2023-06-04T01:55:59;5.18;;;3.95;;
61531;SDS011;47397;48.194;11.632;2023-06-04T01:57:00;5.18;;;3.90;;
61531;SDS011;47397;48.194;11.632;2023-06-04T01:58:00;5.50;;;4.07;;
61531;SDS011;47397;48.194;11.632;2023-06-04T01:59:00;5.50;;;4.00;;
61531;SDS011;47397;48.194;11.632;2023-06-04T02:00:01;5.30;;;4.07;;
61531;SDS011;47397;48.194;11.632;2023-06-04T02:01:01;5.85;;;3.85;;
61531;SDS011;47397;48.194;11.632;2023-06-04T02:02:02;5.68;;;4.10;;
61531;SDS011;47397;48.194;11.632;2023-06-04T02:03:02;5.80;;;3.90;;
61531;SDS011;47397;48.194;11.632;2023-06-04T02:04:04;6.35;;;4.10;;
61531;SDS011;47397;48.194;11.632;2023-06-04T02:05:05;5.85;;;4.30;;
61531;SDS011;47397;48.194;11.632;2023-06-04T02:06:06;7.00;;;3.90;;
61531;SDS011;47397;48.194;11.632;2023-06-04T02:07:06;5.32;;;4.38;;
61531;SDS011;47397;48.194;11.632;2023-06-04T02:08:06;5.45;;;4.40;;
61531;SDS011;47397;48.194;11.632;2023-06-04T02:09:07;6.15;;;4.22;;
61531;SDS011;47397;48.194;11.632;2023-06-04T02:10:08;6.35;;;4.30;;
61531;SDS011;47397;48.194;11.632;2023-06-04T02:11:09;4.65;;;3.78;;
61531;SDS011;47397;48.194;11.632;2023-06-04T02:12:09;5.28;;;3.95;;
61531;SDS011;47397;48.194;11.632;2023-06-04T02:13:10;4.95;;;3.75;;
61531;SDS011;47397;48.194;11.632;2023-06-04T02:14:10;6.75;;;4.28;;
61531;SDS011;47397;48.194;11.632;2023-06-04T02:15:11;5.57;;;4.13;;
61531;SDS011;47397;48.194;11.632;2023-06-04T02:16:11;5.90;;;3.95;;
61531;SDS011;47397;48.194;11.632;2023-06-04T02:17:11;4.53;;;3.85;;
61531;SDS011;47397;48.194;11.632;2023-06-04T02:18:13;5.78;;;4.03;;
61531;SDS011;47397;48.194;11.632;2023-06-04T02:19:16;5.30;;;3.72;;
61531;SDS011;47397;48.194;11.632;2023-06-04T02:20:17;5.80;;;3.72;;
61531;SDS011;47397;48.194;11.632;2023-06-04T02:21:17;5.20;;;3.50;;
61531;SDS011;47397;48.194;11.632;2023-06-04T02:22:18;4.55;;;3.58;;
61531;SDS011;47397;48.194;11.632;2023-06-04T02:23:19;5.35;;;4.25;;
61531;SDS011;47397;48.194;11.632;2023-06-04T02:24:20;6.07;;;4.50;;
61531;SDS011;47397;48.194;11.632;2023-06-04T02:25:20;6.93;;;4.30;;
61531;SDS011;47397;48.194;11.632;2023-06-04T02:26:21;5.90;;;3.88;;
61531;SDS011;47397;48.194;11.632;2023-06-04T02:27:21;4.97;;;3.70;;
61531;SDS011;47397;48.194;11.632;2023-06-04T02:28:22;4.60;;;3.50;;
61531;SDS011;47397;48.194;11.632;2023-06-04T02:29:22;5.63;;;3.95;;
61531;SDS011;47397;48.194;11.632;2023-06-04T02:30:23;6.50;;;4.60;;
61531;SDS011;47397;48.194;11.632;2023-06-04T02:31:23;5.30;;;3.75;;
61531;SDS011;47397;48.194;11.632;2023-06-04T02:32:23;6.05;;;3.97;;
61531;SDS011;47397;48.194;11.632;2023-06-04T02:33:24;4.50;;;3.92;;
61531;SDS011;47397;48.194;11.632;2023-06-04T02:34:26;5.88;;;3.85;;
61531;SDS011;47397;48.194;11.632;2023-06-04T02:35:26;5.07;;;3.92;;
61531;SDS011;47397;48.194;11.632;2023-06-04T02:36:28;6.47;;;3.85;;
61531;SDS011;47397;48.194;11.632;2023-06-04T02:37:29;4.97;;;4.15;;
61531;SDS011;47397;48.194;11.632;2023-06-04T02:38:29;5.82;;;3.88;;
61531;SDS011;47397;48.194;11.632;2023-06-04T02:39:29;5.22;;;3.67;;
61531;SDS011;47397;48.194;11.632;2023-06-04T02:40:30;6.95;;;4.18;;
61531;SDS011;47397;48.194;11.632;2023-06-04T02:41:31;4.65;;;3.30;;
61531;SDS011;47397;48.194;11.632;2023-06-04T02:42:31;4.05;;;3.45;;
61531;SDS011;47397;48.194;11.632;2023-06-04T02:43:31;6.18;;;3.70;;
61531;SDS011;47397;48.194;11.632;2023-06-04T02:44:32;5.15;;;3.67;;
61531;SDS011;47397;48.194;11.632;2023-06-04T02:45:32;6.40;;;3.85;;
61531;SDS011;47397;48.194;11.632;2023-06-04T02:46:33;5.43;;;3.85;;
61531;SDS011;47397;48.194;11.632;2023-06-04T02:47:33;5.30;;;3.92;;
61531;SDS011;47397;48.194;11.632;2023-06-04T02:48:33;4.45;;;3.60;;
61531;SDS011;47397;48.194;11.632;2023-06-04T02:49:35;5.93;;;3.85;;
61531;SDS011;47397;48.194;11.632;2023-06-04T02:50:36;5.88;;;3.60;;
61531;SDS011;47397;48.194;11.632;2023-06-04T02:51:36;6.53;;;4.30;;
61531;SDS011;47397;48.194;11.632;2023-06-04T02:52:36;5.22;;;4.05;;
61531;SDS011;47397;48.194;11.632;2023-06-04T02:53:37;6.28;;;4.32;;
61531;SDS011;47397;48.194;11.632;2023-06-04T02:54:37;5.03;;;4.13;;
61531;SDS011;47397;48.194;11.632;2023-06-04T02:55:38;5.40;;;4.00;;
61531;SDS011;47397;48.194;11.632;2023-06-04T02:56:38;5.90;;;3.97;;
61531;SDS011;47397;48.194;11.632;2023-06-04T02:57:39;6.20;;;4.00;;
61531;SDS011;47397;48.194;11.632;2023-06-04T02:58:48;6.30;;;4.43;;
61531;SDS011;47397;48.194;11.632;2023-06-04T02:59:49;6.07;;;4.07;;
61531;SDS011;47397;48.194;11.632;2023-06-04T03:00:49;6.18;;;4.15;;
61531;SDS011;47397;48.194;11.632;2023-06-04T03:01:50;5.53;;;3.97;;
61531;SDS011;47397;48.194;11.632;2023-06-04T03:02:50;7.50;;;4.45;;
61531;SDS011;47397;48.194;11.632;2023-06-04T03:03:50;5.10;;;3.88;;
61531;SDS011;47397;48.194;11.632;2023-06-04T03:04:53;6.05;;;4.30;;
61531;SDS011;47397;48.194;11.632;2023-06-04T03:05:54;6.22;;;4.07;;
61531;SDS011;47397;48.194;11.632;2023-06-04T03:06:55;6.75;;;4.05;;
61531;SDS011;47397;48.194;11.632;2023-06-04T03:07:55;6.88;;;3.85;;
61531;SDS011;47397;48.194;11.632;2023-06-04T03:08:55;5.47;;;3.80;;
61531;SDS011;47397;48.194;11.632;2023-06-04T03:09:56;5.85;;;4.13;;
61531;SDS011;47397;48.194;11.632;2023-06-04T03:10:56;5.22;;;4.13;;
61531;SDS011;47397;48.194;11.632;2023-06-04T03:11:57;7.13;;;4.35;;
61531;SDS011;47397;48.194;11.632;2023-06-04T03:12:59;5.72;;;4.05;;
61531;SDS011;47397;48.194;11.632;2023-06-04T03:13:59;4.82;;;4.03;;
61531;SDS011;47397;48.194;11.632;2023-06-04T03:15:00;5.22;;;4.05;;
61531;SDS011;47397;48.194;11.632;2023-06-04T03:16:00;5.93;;;4.20;;
61531;SDS011;47397;48.194;11.632;2023-06-04T03:17:02;6.47;;;4.15;;
61531;SDS011;47397;48.194;11.632;2023-06-04T03:18:02;5.53;;;4.15;;
61531;SDS011;47397;48.194;11.632;2023-06-04T03:19:03;7.90;;;4.60;;
61531;SDS011;47397;48.194;11.632;2023-06-04T03:20:05;5.35;;;3.90;;
61531;SDS011;47397;48.194;11.632;2023-06-04T03:21:06;5.80;;;4.15;;
61531;SDS011;47397;48.194;11.632;2023-06-04T03:22:07;5.97;;;4.25;;
61531;SDS011;47397;48.194;11.632;2023-06-04T03:23:08;5.07;;;3.78;;
61531;SDS011;47397;48.194;11.632;2023-06-04T03:24:09;5.05;;;3.88;;
61531;SDS011;47397;48.194;11.632;2023-06-04T03:25:09;6.35;;;4.55;;
61531;SDS011;47397;48.194;11.632;2023-06-04T03:26:10;6.63;;;4.72;;
61531;SDS011;47397;48.194;11.632;2023-06-04T03:27:11;5.25;;;3.97;;
61531;SDS011;47397;48.194;11.632;2023-06-04T03:28:12;6.00;;;4.10;;
61531;SDS011;47397;48.194;11.632;2023-06-04T03:29:12;5.95;;;4.78;;
61531;SDS011;47397;48.194;11.632;2023-06-04T03:30:13;7.00;;;4.28;;
61531;SDS011;47397;48.194;11.632;2023-06-04T03:31:13;7.20;;;4.68;;
61531;SDS011;47397;48.194;11.632;2023-06-04T03:32:13;6.18;;;4.35;;
61531;SDS011;47397;48.194;11.632;2023-06-04T03:33:14;6.07;;;4.32;;
61531;SDS011;47397;48.194;11.632;2023-06-04T03:34:14;6.28;;;4.80;;
61531;SDS011;47397;48.194;11.632;2023-06-04T03:35:16;7.13;;;4.82;;
61531;SDS011;47397;48.194;11.632;2023-06-04T03:36:17;6.95;;;4.68;;
61531;SDS011;47397;48.194;11.632;2023-06-04T03:37:17;6.38;;;4.72;;
61531;SDS011;47397;48.194;11.632;2023-06-04T03:38:18;6.50;;;4.25;;
61531;SDS011;47397;48.194;11.632;2023-06-04T03:39:18;6.22;;;4.65;;
61531;SDS011;47397;48.194;11.632;2023-06-04T03:40:19;7.53;;;4.68;;
61531;SDS011;47397;48.194;11.632;2023-06-04T03:41:19;7.72;;;5.20;;
61531;SDS011;47397;48.194;11.632;2023-06-04T03:42:20;6.22;;;4.60;;
61531;SDS011;47397;48.194;11.632;2023-06-04T03:43:20;6.63;;;5.00;;
61531;SDS011;47397;48.194;11.632;2023-06-04T03:44:21;7.47;;;4.50;;
61531;SDS011;47397;48.194;11.632;2023-06-04T03:45:22;6.28;;;4.95;;
61531;SDS011;47397;48.194;11.632;2023-06-04T03:46:22;8.85;;;5.57;;
61531;SDS011;47397;48.194;11.632;2023-06-04T03:47:23;8.20;;;4.80;;
61531;SDS011;47397;48.194;11.632;2023-06-04T03:48:23;7.53;;;4.97;;
61531;SDS011;47397;48.194;11.632;2023-06-04T03:49:24;7.75;;;4.50;;
61531;SDS011;47397;48.194;11.632;2023-06-04T03:50:26;6.35;;;4.63;;
61531;SDS011;47397;48.194;11.632;2023-06-04T03:51:26;6.13;;;4.70;;
61531;SDS011;47397;48.194;11.632;2023-06-04T03:52:27;6.90;;;4.85;;
61531;SDS011;47397;48.194;11.632;2023-06-04T03:53:27;6.60;;;5.15;;
61531;SDS011;47397;48.194;11.632;2023-06-04T03:54:28;6.18;;;4.57;;
61531;SDS011;47397;48.194;11.632;2023-06-04T03:55:28;7.07;;;4.40;;
61531;SDS011;47397;48.194;11.632;2023-06-04T03:56:28;7.45;;;5.15;;
61531;SDS011;47397;48.194;11.632;2023-06-04T03:57:29;7.45;;;4.88;;
61531;SDS011;47397;48.194;11.632;2023-06-04T03:58:29;5.40;;;4.30;;
61531;SDS011;47397;48.194;11.632;2023-06-04T03:59:30;6.18;;;4.65;;
61531;SDS011;47397;48.194;11.632;2023-06-04T04:00:30;5.75;;;4.65;;
61531;SDS011;47397;48.194;11.632;2023-06-04T04:01:30;7.15;;;4.82;;
61531;SDS011;47397;48.194;11.632;2023-06-04T04:02:31;5.45;;;4.53;;
61531;SDS011;47397;48.194;11.632;2023-06-04T04:03:33;6.70;;;4.75;;
61531;SDS011;47397;48.194;11.632;2023-06-04T04:04:33;6.85;;;4.82;;
61531;SDS011;47397;48.194;11.632;2023-06-04T04:05:35;6.30;;;4.47;;
61531;SDS011;47397;48.194;11.632;2023-06-04T04:06:35;7.43;;;4.75;;
61531;SDS011;47397;48.194;11.632;2023-06-04T04:07:36;6.78;;;4.80;;
61531;SDS011;47397;48.194;11.632;2023-06-04T04:08:36;9.15;;;5.18;;
61531;SDS011;47397;48.194;11.632;2023-06-04T04:09:37;6.70;;;4.63;;
61531;SDS011;47397;48.194;11.632;2023-06-04T04:10:37;7.43;;;5.35;;
61531;SDS011;47397;48.194;11.632;2023-06-04T04:11:38;7.32;;;5.10;;
61531;SDS011;47397;48.194;11.632;2023-06-04T04:12:38;6.13;;;4.38;;
61531;SDS011;47397;48.194;11.632;2023-06-04T04:13:38;6.03;;;4.88;;
61531;SDS011;47397;48.194;11.632;2023-06-04T04:14:39;7.38;;;4.50;;
61531;SDS011;47397;48.194;11.632;2023-06-04T04:15:39;6.28;;;4.57;;
61531;SDS011;47397;48.194;11.632;2023-06-04T04:16:40;6.72;;;5.35;;
61531;SDS011;47397;48.194;11.632;2023-06-04T04:17:40;5.93;;;4.68;;
61531;SDS011;47397;48.194;11.632;2023-06-04T04:18:41;8.60;;;4.70;;
61531;SDS011;47397;48.194;11.632;2023-06-04T04:19:42;6.45;;;4.90;;
61531;SDS011;47397;48.194;11.632;2023-06-04T04:20:44;7.72;;;4.55;;
61531;SDS011;47397;48.194;11.632;2023-06-04T04:21:44;9.73;;;4.40;;
61531;SDS011;47397;48.194;11.632;2023-06-04T04:22:45;5.70;;;4.25;;
61531;SDS011;47397;48.194;11.632;2023-06-04T04:23:45;7.85;;;5.05;;
61531;SDS011;47397;48.194;11.632;2023-06-04T04:24:46;7.18;;;4.95;;
61531;SDS011;47397;48.194;11.632;2023-06-04T04:25:46;6.35;;;4.10;;
61531;SDS011;47397;48.194;11.632;2023-06-04T04:26:46;7.78;;;5.07;;
61531;SDS011;47397;48.194;11.632;2023-06-04T04:27:47;7.80;;;4.55;;
61531;SDS011;47397;48.194;11.632;2023-06-04T04:28:47;6.35;;;4.45;;
61531;SDS011;47397;48.194;11.632;2023-06-04T04:29:48;7.07;;;4.65;;
61531;SDS011;47397;48.194;11.632;2023-06-04T04:30:48;6.65;;;4.97;;
61531;SDS011;47397;48.194;11.632;2023-06-04T04:31:48;5.53;;;4.22;;
61531;SDS011;47397;48.194;11.632;2023-06-04T04:32:49;5.32;;;4.30;;
61531;SDS011;47397;48.194;11.632;2023-06-04T04:33:49;5.72;;;4.18;;
61531;SDS011;47397;48.194;11.632;2023-06-04T04:34:50;6.05;;;4.35;;
61531;SDS011;47397;48.194;11.632;2023-06-04T04:35:53;7.07;;;4.75;;
61531;SDS011;47397;48.194;11.632;2023-06-04T04:36:53;7.15;;;4.78;;
61531;SDS011;47397;48.194;11.632;2023-06-04T04:37:54;7.90;;;4.57;;
61531;SDS011;47397;48.194;11.632;2023-06-04T04:38:55;5.80;;;4.35;;
61531;SDS011;47397;48.194;11.632;2023-06-04T04:39:55;5.47;;;4.50;;
61531;SDS011;47397;48.194;11.632;2023-06-04T04:40:56;6.20;;;4.38;;
61531;SDS011;47397;48.194;11.632;2023-06-04T04:41:56;7.53;;;4.57;;
61531;SDS011;47397;48.194;11.632;2023-06-04T04:42:57;8.40;;;4.55;;
61531;SDS011;47397;48.194;11.632;2023-06-04T04:44:02;6.13;;;4.68;;
61531;SDS011;47397;48.194;11.632;2023-06-04T04:45:03;6.95;;;4.72;;
61531;SDS011;47397;48.194;11.632;2023-06-04T04:46:04;5.82;;;4.70;;
61531;SDS011;47397;48.194;11.632;2023-06-04T04:47:05;5.05;;;4.10;;
61531;SDS011;47397;48.194;11.632;2023-06-04T04:48:05;6.97;;;4.28;;
61531;SDS011;47397;48.194;11.632;2023-06-04T04:49:06;6.05;;;4.18;;
61531;SDS011;47397;48.194;11.632;2023-06-04T04:50:06;7.55;;;4.78;;
61531;SDS011;47397;48.194;11.632;2023-06-04T04:51:08;6.82;;;4.47;;
61531;SDS011;47397;48.194;11.632;2023-06-04T04:52:09;5.57;;;4.47;;
61531;SDS011;47397;48.194;11.632;2023-06-04T04:53:09;6.07;;;4.30;;
61531;SDS011;47397;48.194;11.632;2023-06-04T04:54:09;7.00;;;4.35;;
61531;SDS011;47397;48.194;11.632;2023-06-04T04:55:10;7.10;;;4.90;;
61531;SDS011;47397;48.194;11.632;2023-06-04T04:56:10;7.57;;;4.63;;
61531;SDS011;47397;48.194;11.632;2023-06-04T04:57:11;7.93;;;4.10;;
61531;SDS011;47397;48.194;11.632;2023-06-04T04:58:11;6.20;;;4.40;;
61531;SDS011;47397;48.194;11.632;2023-06-04T04:59:12;6.82;;;4.68;;
61531;SDS011;47397;48.194;11.632;2023-06-04T05:00:13;6.15;;;4.30;;
61531;SDS011;47397;48.194;11.632;2023-06-04T05:01:14;8.15;;;4.35;;
61531;SDS011;47397;48.194;11.632;2023-06-04T05:02:14;6.63;;;4.68;;
61531;SDS011;47397;48.194;11.632;2023-06-04T05:03:15;6.13;;;4.10;;
61531;SDS011;47397;48.194;11.632;2023-06-04T05:04:15;6.43;;;4.40;;
61531;SDS011;47397;48.194;11.632;2023-06-04T05:05:16;5.95;;;4.18;;
61531;SDS011;47397;48.194;11.632;2023-06-04T05:06:17;4.88;;;3.95;;
61531;SDS011;47397;48.194;11.632;2023-06-04T05:07:18;6.82;;;4.20;;
61531;SDS011;47397;48.194;11.632;2023-06-04T05:08:18;6.07;;;4.30;;
61531;SDS011;47397;48.194;11.632;2023-06-04T05:09:19;7.82;;;3.83;;
61531;SDS011;47397;48.194;11.632;2023-06-04T05:10:19;4.03;;;3.33;;
61531;SDS011;47397;48.194;11.632;2023-06-04T05:11:19;6.80;;;4.20;;
61531;SDS011;47397;48.194;11.632;2023-06-04T05:12:20;6.13;;;3.83;;
61531;SDS011;47397;48.194;11.632;2023-06-04T05:13:20;5.50;;;3.90;;
61531;SDS011;47397;48.194;11.632;2023-06-04T05:14:21;5.32;;;3.65;;
61531;SDS011;47397;48.194;11.632;2023-06-04T05:15:21;7.63;;;4.35;;
61531;SDS011;47397;48.194;11.632;2023-06-04T05:16:22;4.93;;;3.67;;
61531;SDS011;47397;48.194;11.632;2023-06-04T05:17:22;5.43;;;3.60;;
61531;SDS011;47397;48.194;11.632;2023-06-04T05:18:22;5.85;;;3.78;;
61531;SDS011;47397;48.194;11.632;2023-06-04T05:19:23;5.38;;;3.95;;
61531;SDS011;47397;48.194;11.632;2023-06-04T05:20:23;6.85;;;3.78;;
61531;SDS011;47397;48.194;11.632;2023-06-04T05:21:25;5.32;;;3.63;;
61531;SDS011;47397;48.194;11.632;2023-06-04T05:22:26;5.88;;;3.72;;
61531;SDS011;47397;48.194;11.632;2023-06-04T05:23:26;6.63;;;3.90;;
61531;SDS011;47397;48.194;11.632;2023-06-04T05:24:26;5.10;;;3.70;;
61531;SDS011;47397;48.194;11.632;2023-06-04T05:25:27;6.50;;;3.70;;
61531;SDS011;47397;48.194;11.632;2023-06-04T05:26:27;6.00;;;3.70;;
61531;SDS011;47397;48.194;11.632;2023-06-04T05:27:28;4.75;;;3.75;;
61531;SDS011;47397;48.194;11.632;2023-06-04T05:28:28;6.35;;;3.70;;
61531;SDS011;47397;48.194;11.632;2023-06-04T05:29:29;5.63;;;3.72;;
61531;SDS011;47397;48.194;11.632;2023-06-04T05:30:29;5.30;;;3.75;;
61531;SDS011;47397;48.194;11.632;2023-06-04T05:31:29;7.45;;;3.80;;
61531;SDS011;47397;48.194;11.632;2023-06-04T05:32:30;5.97;;;3.70;;
61531;SDS011;47397;48.194;11.632;2023-06-04T05:33:30;4.88;;;3.25;;
61531;SDS011;47397;48.194;11.632;2023-06-04T05:34:31;5.30;;;3.42;;
61531;SDS011;47397;48.194;11.632;2023-06-04T05:35:31;4.60;;;3.58;;
61531;SDS011;47397;48.194;11.632;2023-06-04T05:36:33;4.40;;;3.40;;
61531;SDS011;47397;48.194;11.632;2023-06-04T05:37:33;6.45;;;4.00;;
61531;SDS011;47397;48.194;11.632;2023-06-04T05:38:34;5.63;;;3.80;;
61531;SDS011;47397;48.194;11.632;2023-06-04T05:39:34;4.97;;;3.28;;
61531;SDS011;47397;48.194;11.632;2023-06-04T05:40:35;4.70;;;3.35;;
61531;SDS011;47397;48.194;11.632;2023-06-04T05:41:35;5.45;;;3.40;;
61531;SDS011;47397;48.194;11.632;2023-06-04T05:42:36;5.70;;;3.90;;
61531;SDS011;47397;48.194;11.632;2023-06-04T05:43:37;4.40;;;3.28;;
61531;SDS011;47397;48.194;11.632;2023-06-04T05:44:37;6.30;;;3.20;;
61531;SDS011;47397;48.194;11.632;2023-06-04T05:45:38;4.85;;;3.33;;
61531;SDS011;47397;48.194;11.632;2023-06-04T05:46:38;4.35;;;3.30;;
61531;SDS011;47397;48.194;11.632;2023-06-04T05:47:39;7.05;;;3.50;;
61531;SDS011;47397;48.194;11.632;2023-06-04T05:48:39;4.00;;;3.20;;
61531;SDS011;47397;48.194;11.632;2023-06-04T05:49:39;4.57;;;3.10;;
61531;SDS011;47397;48.194;11.632;2023-06-04T05:50:40;4.63;;;3.10;;
61531;SDS011;47397;48.194;11.632;2023-06-04T05:51:42;4.90;;;3.35;;
61531;SDS011;47397;48.194;11.632;2023-06-04T05:52:42;4.97;;;3.40;;
61531;SDS011;47397;48.194;11.632;2023-06-04T05:53:43;5.57;;;3.83;;
61531;SDS011;47397;48.194;11.632;2023-06-04T05:54:43;4.80;;;3.28;;
61531;SDS011;47397;48.194;11.632;2023-06-04T05:55:44;5.47;;;3.63;;
61531;SDS011;47397;48.194;11.632;2023-06-04T05:56:44;5.20;;;3.50;;
61531;SDS011;47397;48.194;11.632;2023-06-04T05:57:44;4.65;;;3.55;;
61531;SDS011;47397;48.194;11.632;2023-06-04T05:58:50;5.45;;;3.47;;
61531;SDS011;47397;48.194;11.632;2023-06-04T05:59:51;4.93;;;3.15;;
61531;SDS011;47397;48.194;11.632;2023-06-04T06:00:51;4.30;;;3.40;;
61531;SDS011;47397;48.194;11.632;2023-06-04T06:01:52;5.55;;;3.15;;
61531;SDS011;47397;48.194;11.632;2023-06-04T06:02:52;5.65;;;3.55;;